Terminal Aerodrome Forecast
Issued by NWS

Home | Current Version | Previous Version | Text Only | Print | Product List | Glossary On
Versions: 1 2 3 4 5 6 7 8 9 10 11 12 13 14 15 16 17 18 19
000
FTUS44 KLZK 242000 AAA
TAFLLQ
TAF AMD
KLLQ 242037Z 2421/2518 19012G22KT P6SM VCTS SCT020 BKN050CB OVC080
      TEMPO 2421/2424 3SM TSRA BR BKN020CB OVC040
     FM250000 20012G22KT P6SM VCTS SCT020 BKN050CB OVC080
      TEMPO 2500/2503 4SM TSRA BR BKN020CB OVC040
     FM250300 29012G20KT P6SM VCSH BKN040 OVC100
     FM250600 29005KT P6SM SCT040 BKN100
     FM250900 VRB04KT P6SM SKC=

USA.gov is the U.S. government's official web portal to all federal, state and local government web resources and services.